Time;durP1;ratioP1;P1;durP2;ratioP2;P2;SDS_P1;SDS_P2;PMS_P1;PMS_P2;Temp;Humidity;BMP_temperature;BMP_pressure;BME280_temperature;BME280_humidity;BME280_pressure;Samples;Min_cycle;Max_cycle;Signal;HPM_P1;HPM_P2
2021/03/17 00:00:21;;;;;;;6.00;1.43;;;-0.80;39.20;;;;;;4371078;32;20069;-36
2021/03/17 00:02:48;;;;;;;2.17;0.83;;;-0.80;39.40;;;;;;4341049;32;20077;-37
2021/03/17 00:05:27;;;;;;;6.27;2.60;;;-0.90;39.30;;;;;;4341028;32;20070;-38
2021/03/17 00:07:53;;;;;;;3.83;1.10;;;-0.80;39.30;;;;;;4340810;32;20081;-37
2021/03/17 00:10:21;;;;;;;4.97;1.43;;;-0.80;39.30;;;;;;4341330;32;20097;-36
2021/03/17 00:12:49;;;;;;;7.00;1.77;;;-0.80;39.30;;;;;;4341618;33;20936;-37
2021/03/17 00:15:21;;;;;;;10.07;2.13;;;-0.80;39.80;;;;;;4341846;33;20132;-37
2021/03/17 00:17:47;;;;;;;3.73;1.67;;;-0.80;39.60;;;;;;4317061;33;20066;-37
2021/03/17 00:20:15;;;;;;;6.87;2.10;;;-0.80;39.60;;;;;;4329183;33;20065;-37
2021/03/17 00:22:41;;;;;;;3.33;1.17;;;-0.80;39.50;;;;;;4341556;33;20098;-37
2021/03/17 00:25:09;;;;;;;8.43;2.10;;;-0.80;39.30;;;;;;4328453;33;20062;-37
2021/03/17 00:27:35;;;;;;;7.70;1.93;;;-0.80;39.50;;;;;;4328644;33;20320;-37
2021/03/17 00:30:04;;;;;;;5.63;1.80;;;-0.80;39.40;;;;;;4328497;33;20063;-39
2021/03/17 00:32:31;;;;;;;3.87;1.10;;;-0.80;39.40;;;;;;4333218;32;20190;-37
2021/03/17 00:34:57;;;;;;;3.17;1.20;;;-0.80;39.20;;;;;;4387374;32;20126;-38
2021/03/17 00:37:24;;;;;;;5.67;1.70;;;-0.80;39.20;;;;;;4361713;32;20058;-39
2021/03/17 00:39:50;;;;;;;5.30;0.70;;;-0.80;39.30;;;;;;4361868;32;20060;-38
2021/03/17 00:42:16;;;;;;;3.67;1.20;;;-0.90;39.20;;;;;;4388208;32;20108;-39
2021/03/17 00:44:43;;;;;;;3.80;1.13;;;-0.90;39.20;;;;;;4374085;32;20062;-35
2021/03/17 00:47:09;;;;;;;7.50;1.20;;;-0.90;39.30;;;;;;4373798;32;20151;-36
2021/03/17 00:49:36;;;;;;;5.90;1.70;;;-0.90;39.40;;;;;;4388208;32;20072;-36
2021/03/17 00:52:03;;;;;;;7.60;3.17;;;-0.90;39.70;;;;;;4389648;32;20619;-35
2021/03/17 00:54:29;;;;;;;2.80;1.60;;;-0.90;40.70;;;;;;4391279;32;20089;-35
2021/03/17 00:56:55;;;;;;;4.40;1.20;;;-0.90;40.60;;;;;;4377000;32;20146;-35
2021/03/17 00:59:22;;;;;;;2.90;1.10;;;-0.90;40.30;;;;;;4390989;32;20541;-37
2021/03/17 01:01:48;;;;;;;7.00;1.20;;;-0.90;40.30;;;;;;4376964;32;20505;-37
2021/03/17 01:04:16;;;;;;;3.10;0.90;;;-0.90;40.20;;;;;;4364608;32;20138;-35
2021/03/17 01:06:42;;;;;;;1.90;0.80;;;-0.80;40.30;;;;;;4376351;32;20142;-36
2021/03/17 01:09:09;;;;;;;3.97;1.50;;;-0.80;40.30;;;;;;4397166;32;20093;-35
2021/03/17 01:11:35;;;;;;;10.40;3.53;;;-0.80;40.30;;;;;;4379345;32;20517;-35
2021/03/17 01:14:02;;;;;;;5.30;2.13;;;-0.70;40.70;;;;;;4391312;32;20501;-36
2021/03/17 01:16:28;;;;;;;9.87;2.07;;;-0.80;41.00;;;;;;4372493;32;20497;-37
2021/03/17 01:18:55;;;;;;;8.60;5.47;;;-0.80;41.30;;;;;;4372721;32;20069;-35
2021/03/17 01:21:21;;;;;;;5.33;2.20;;;-0.80;41.10;;;;;;4373020;32;20144;-35
2021/03/17 01:23:48;;;;;;;3.37;1.80;;;-0.70;41.00;;;;;;4360642;32;20143;-36
2021/03/17 01:26:14;;;;;;;6.20;2.20;;;-0.70;41.00;;;;;;4360802;32;20598;-35
2021/03/17 01:28:42;;;;;;;4.73;1.93;;;-0.70;41.40;;;;;;4372690;32;20066;-36
2021/03/17 01:31:08;;;;;;;13.80;5.47;;;-0.60;41.00;;;;;;4347964;32;20134;-36
2021/03/17 01:33:35;;;;;;;3.73;1.80;;;-0.60;41.10;;;;;;4348181;32;20093;-36
2021/03/17 01:36:02;;;;;;;17.43;4.10;;;-0.60;41.30;;;;;;4360607;32;20073;-36
2021/03/17 01:38:29;;;;;;;5.33;2.23;;;-0.60;41.00;;;;;;4347745;32;20153;-36
2021/03/17 01:40:56;;;;;;;8.53;2.13;;;-0.50;41.20;;;;;;4360009;32;20073;-36
2021/03/17 01:43:23;;;;;;;11.57;3.00;;;-0.50;40.90;;;;;;4372364;32;20562;-35
2021/03/17 01:45:50;;;;;;;9.20;2.90;;;-0.50;41.20;;;;;;4373153;32;20219;-38
2021/03/17 01:48:17;;;;;;;6.70;3.47;;;-0.50;41.20;;;;;;4376301;32;20520;-36
2021/03/17 01:50:54;;;;;;;7.57;2.03;;;-0.50;41.10;;;;;;4378810;32;20065;-35
2021/03/17 01:53:31;;;;;;;4.07;2.07;;;-0.50;41.00;;;;;;4405437;32;20449;-36
2021/03/17 01:55:57;;;;;;;4.97;2.13;;;-0.50;40.80;;;;;;4405374;32;20489;-35
2021/03/17 01:58:24;;;;;;;8.27;4.53;;;-0.50;40.60;;;;;;4391082;32;20145;-35
2021/03/17 02:00:50;;;;;;;4.53;1.73;;;-0.50;40.70;;;;;;4391201;32;20092;-36
2021/03/17 02:03:17;;;;;;;3.87;2.27;;;-0.50;40.80;;;;;;4378026;32;20521;-36
2021/03/17 02:05:47;;;;;;;2.87;1.30;;;-0.60;40.70;;;;;;4404919;32;20061;-36
2021/03/17 02:08:33;;;;;;;9.03;2.50;;;-0.60;40.60;;;;;;4390201;32;20077;-35
2021/03/17 02:11:00;;;;;;;4.37;1.40;;;-0.60;40.80;;;;;;4333369;32;20081;-35
2021/03/17 02:13:56;;;;;;;2.63;1.17;;;-0.60;40.50;;;;;;4357452;32;20470;-36
2021/03/17 02:17:00;;;;;;;5.23;2.20;;;-0.60;40.50;;;;;;4327370;33;20164;-35
2021/03/17 02:20:06;;;;;;;3.37;1.80;;;-0.70;40.70;;;;;;4327419;33;20620;-35
2021/03/17 02:22:56;;;;;;;5.05;1.52;;;-0.70;40.60;;;;;;4317337;33;20079;-37
2021/03/17 02:25:53;;;;;;;3.17;1.43;;;-0.80;40.60;;;;;;4315411;33;20083;-39
2021/03/17 02:28:54;;;;;;;3.10;1.43;;;-0.80;40.90;;;;;;4327400;33;20086;-36
2021/03/17 02:32:02;;;;;;;5.40;1.57;;;-0.90;41.00;;;;;;4297639;33;20066;-36
2021/03/17 02:34:32;;;;;;;3.43;2.20;;;-0.90;41.10;;;;;;4286603;33;20082;-36
2021/03/17 02:37:05;;;;;;;4.27;2.53;;;-1.00;41.10;;;;;;4286227;33;20529;-36
2021/03/17 02:39:49;;;;;;;3.97;1.70;;;-1.00;41.30;;;;;;4286079;33;20151;-36
2021/03/17 02:42:35;;;;;;;3.77;1.47;;;-1.00;41.20;;;;;;4292142;33;20078;-37
2021/03/17 02:45:17;;;;;;;3.00;1.47;;;-1.00;41.00;;;;;;4302715;33;20082;-37
2021/03/17 02:47:55;;;;;;;8.60;2.13;;;-0.90;41.00;;;;;;4316208;33;20085;-36
2021/03/17 02:50:22;;;;;;;2.70;1.07;;;-0.90;40.90;;;;;;4304313;33;20204;-36
2021/03/17 02:52:54;;;;;;;1.47;0.87;;;-0.90;40.80;;;;;;4315630;33;20070;-37
2021/03/17 02:55:23;;;;;;;2.37;1.33;;;-0.90;40.70;;;;;;4342113;33;20531;-36
2021/03/17 02:57:49;;;;;;;3.23;2.17;;;-0.90;40.50;;;;;;4305673;33;20059;-36
2021/03/17 03:00:17;;;;;;;4.57;1.93;;;-0.90;40.50;;;;;;4287928;33;20090;-36
2021/03/17 03:02:43;;;;;;;2.53;1.53;;;-0.90;40.60;;;;;;4319022;33;20054;-35
2021/03/17 03:05:14;;;;;;;1.70;0.60;;;-0.90;40.50;;;;;;4336201;32;20093;-36
2021/03/17 03:07:41;;;;;;;2.33;0.70;;;-0.90;40.50;;;;;;4346862;32;20066;-36
2021/03/17 03:10:09;;;;;;;3.40;1.07;;;-0.90;40.40;;;;;;4359190;32;20135;-36
2021/03/17 03:12:36;;;;;;;3.57;1.47;;;-0.90;40.40;;;;;;4371538;32;20567;-37
2021/03/17 03:15:05;;;;;;;4.73;1.87;;;-1.00;40.50;;;;;;4346435;32;20151;-36
2021/03/17 03:17:33;;;;;;;5.97;3.27;;;-1.00;40.50;;;;;;4371681;32;20076;-37
2021/03/17 03:19:59;;;;;;;0.27;0.20;;;-0.90;40.50;;;;;;4359161;32;20066;-37
2021/03/17 03:22:26;;;;;;;2.50;0.93;;;-0.90;40.40;;;;;;4322187;32;20063;-38
2021/03/17 03:24:54;;;;;;;3.80;0.90;;;-0.90;40.40;;;;;;4346568;32;20135;-37
2021/03/17 03:27:22;;;;;;;8.17;2.13;;;-0.80;40.30;;;;;;4358635;32;20077;-36
2021/03/17 03:29:49;;;;;;;5.83;1.73;;;-0.80;40.10;;;;;;4371300;32;20109;-36
2021/03/17 03:32:15;;;;;;;5.67;1.43;;;-0.70;40.10;;;;;;4358171;32;20070;-37
2021/03/17 03:34:42;;;;;;;2.23;1.23;;;-0.70;40.10;;;;;;4358455;32;20101;-37
2021/03/17 03:37:08;;;;;;;2.27;0.67;;;-0.60;39.60;;;;;;4364537;32;20167;-37
2021/03/17 03:39:35;;;;;;;4.20;1.30;;;-0.60;39.80;;;;;;4370520;32;20100;-37
2021/03/17 03:42:02;;;;;;;7.03;2.43;;;-0.40;39.60;;;;;;4370966;32;20169;-36
2021/03/17 03:44:28;;;;;;;7.23;2.43;;;-0.40;39.50;;;;;;4345967;32;20082;-35
2021/03/17 03:46:55;;;;;;;3.70;0.70;;;-0.20;39.50;;;;;;4358633;32;20074;-38
2021/03/17 03:49:22;;;;;;;2.87;1.17;;;-0.20;38.80;;;;;;4358234;32;20288;-38
2021/03/17 03:52:13;;;;;;;4.80;1.10;;;0.00;39.20;;;;;;4358354;32;20076;-38
2021/03/17 03:54:48;;;;;;;0.70;0.60;;;0.20;38.50;;;;;;4358387;32;20142;-38
2021/03/17 03:57:18;;;;;;;9.50;1.73;;;0.40;38.40;;;;;;4328873;33;20151;-37
2021/03/17 03:59:47;;;;;;;3.80;1.60;;;0.60;37.20;;;;;;4340782;33;20241;-37
2021/03/17 04:02:27;;;;;;;4.00;1.30;;;0.80;37.40;;;;;;4329030;33;20062;-37
2021/03/17 04:04:55;;;;;;;2.83;1.33;;;1.10;37.00;;;;;;4340955;33;20066;-37
2021/03/17 04:07:22;;;;;;;9.50;1.60;;;1.30;36.40;;;;;;4316694;33;20633;-38
2021/03/17 04:09:55;;;;;;;4.57;1.03;;;1.60;36.60;;;;;;4331184;32;20094;-37
2021/03/17 04:12:22;;;;;;;4.67;1.47;;;1.80;36.50;;;;;;4343371;32;20563;-38
2021/03/17 04:14:54;;;;;;;8.17;1.77;;;2.10;34.10;;;;;;4343107;32;20117;-38
2021/03/17 04:17:46;;;;;;;8.80;1.83;;;2.20;34.40;;;;;;4331027;32;20078;-38
2021/03/17 04:20:16;;;;;;;3.00;1.10;;;2.50;33.50;;;;;;4332740;32;20077;-38
2021/03/17 04:22:44;;;;;;;4.37;1.30;;;2.80;34.20;;;;;;4328336;32;20070;-37
2021/03/17 04:25:13;;;;;;;10.67;1.83;;;3.00;33.00;;;;;;4328668;33;20093;-38
2021/03/17 04:27:43;;;;;;;9.00;1.07;;;3.20;32.50;;;;;;4325470;33;20075;-38
2021/03/17 04:30:10;;;;;;;4.30;0.93;;;3.30;31.80;;;;;;4326347;33;20090;-38
2021/03/17 04:32:37;;;;;;;13.27;1.23;;;3.50;31.70;;;;;;4325915;33;20151;-38
2021/03/17 04:35:06;;;;;;;17.47;2.03;;;3.70;31.90;;;;;;4345248;32;20093;-37
2021/03/17 04:37:32;;;;;;;6.47;1.00;;;4.00;31.80;;;;;;4343832;32;20071;-37
2021/03/17 04:39:59;;;;;;;5.73;1.37;;;4.10;30.60;;;;;;4343429;32;20074;-39
2021/03/17 04:42:25;;;;;;;5.80;0.83;;;4.30;29.70;;;;;;4319476;32;20054;-38
2021/03/17 04:44:52;;;;;;;7.70;1.50;;;4.40;30.20;;;;;;4331151;32;20145;-38
2021/03/17 04:47:19;;;;;;;10.33;1.40;;;4.60;28.60;;;;;;4331513;32;20179;-39
2021/03/17 04:49:46;;;;;;;4.17;1.50;;;4.60;28.60;;;;;;4343434;32;20157;-38
2021/03/17 04:52:16;;;;;;;25.30;5.73;;;4.70;28.60;;;;;;4343227;32;20222;-40
2021/03/17 04:54:42;;;;;;;4.83;1.30;;;4.80;28.60;;;;;;4356935;32;20108;-39
2021/03/17 04:57:24;;;;;;;11.50;1.73;;;4.90;29.00;;;;;;4358083;32;20093;-41
2021/03/17 04:59:51;;;;;;;2.33;0.93;;;5.00;28.10;;;;;;4370397;32;20604;-40
2021/03/17 05:02:24;;;;;;;5.63;1.47;;;5.10;28.70;;;;;;4345817;32;20147;-39
2021/03/17 05:04:52;;;;;;;10.67;2.00;;;5.10;27.70;;;;;;4357790;32;20075;-38
2021/03/17 05:07:18;;;;;;;6.87;1.60;;;5.10;27.70;;;;;;4388586;32;20722;-37
2021/03/17 05:09:46;;;;;;;5.43;1.10;;;5.20;27.40;;;;;;4365786;32;20149;-39
2021/03/17 05:12:14;;;;;;;8.33;1.27;;;5.20;27.30;;;;;;4373257;32;20501;-39
2021/03/17 05:14:40;;;;;;;7.33;2.20;;;5.20;27.10;;;;;;4387497;32;20069;-39
2021/03/17 05:17:07;;;;;;;8.93;1.50;;;5.10;27.10;;;;;;4373524;32;20149;-40
2021/03/17 05:19:33;;;;;;;10.33;2.13;;;5.00;27.30;;;;;;4348802;32;20495;-40
2021/03/17 05:22:00;;;;;;;9.40;1.90;;;5.00;27.20;;;;;;4361103;32;20062;-40
2021/03/17 05:24:26;;;;;;;14.63;3.37;;;5.00;27.20;;;;;;4373473;32;20058;-41
2021/03/17 05:26:56;;;;;;;11.93;1.80;;;4.90;27.20;;;;;;4373173;32;20177;-41
2021/03/17 05:29:24;;;;;;;6.27;1.03;;;4.90;27.50;;;;;;4373330;32;20082;-41
2021/03/17 05:31:52;;;;;;;4.40;1.53;;;4.90;27.60;;;;;;4387469;32;20061;-41
2021/03/17 05:34:19;;;;;;;8.50;1.63;;;4.90;27.10;;;;;;4361360;32;20069;-39
2021/03/17 05:36:47;;;;;;;2.87;0.80;;;4.80;27.30;;;;;;4387331;32;20553;-40
2021/03/17 05:39:14;;;;;;;12.13;1.20;;;4.90;27.30;;;;;;4389069;32;20506;-39
2021/03/17 05:41:41;;;;;;;16.30;2.00;;;5.00;27.00;;;;;;4375710;32;20082;-38
2021/03/17 05:44:08;;;;;;;9.93;1.47;;;5.00;27.60;;;;;;4363344;32;20057;-39
2021/03/17 05:46:35;;;;;;;8.63;1.67;;;5.10;27.20;;;;;;4375993;32;20046;-38
2021/03/17 05:49:02;;;;;;;20.67;1.10;;;5.20;27.00;;;;;;4390543;32;20153;-37
2021/03/17 05:51:29;;;;;;;41.73;5.90;;;5.20;27.00;;;;;;4389986;32;20085;-37
2021/03/17 05:53:55;;;;;;;17.03;2.43;;;5.30;26.90;;;;;;4376093;32;20068;-38
2021/03/17 05:56:22;;;;;;;10.93;1.37;;;5.40;26.70;;;;;;4376170;32;20089;-40
2021/03/17 05:58:48;;;;;;;17.93;2.33;;;5.50;26.20;;;;;;4389844;32;20156;-39
2021/03/17 06:01:15;;;;;;;20.33;2.97;;;5.60;26.50;;;;;;4363449;32;20073;-37
2021/03/17 06:03:43;;;;;;;11.37;1.60;;;5.60;26.10;;;;;;4390044;32;20078;-41
2021/03/17 06:06:11;;;;;;;18.73;2.20;;;5.70;26.60;;;;;;4375773;32;20093;-40
2021/03/17 06:08:47;;;;;;;17.03;3.50;;;5.90;26.60;;;;;;4378747;32;20069;-39
2021/03/17 06:11:14;;;;;;;9.93;1.80;;;6.10;26.20;;;;;;4404829;32;20084;-39
2021/03/17 06:13:47;;;;;;;8.50;0.83;;;6.20;25.80;;;;;;4378571;32;20145;-37
2021/03/17 06:16:16;;;;;;;27.97;2.83;;;6.20;25.80;;;;;;4379034;32;20065;-40
2021/03/17 06:18:45;;;;;;;33.30;2.23;;;6.30;25.70;;;;;;4404540;32;20597;-39
2021/03/17 06:21:18;;;;;;;11.63;1.80;;;6.50;25.70;;;;;;4404517;32;20061;-39
2021/03/17 06:23:55;;;;;;;20.47;3.33;;;6.60;25.40;;;;;;4390312;32;20057;-40
2021/03/17 06:26:22;;;;;;;18.43;1.80;;;6.80;25.60;;;;;;4378569;32;20457;-40
2021/03/17 06:28:48;;;;;;;12.70;1.40;;;6.90;25.30;;;;;;4377951;32;20612;-41
2021/03/17 06:31:15;;;;;;;12.83;1.60;;;7.00;25.30;;;;;;4390157;32;20069;-40
2021/03/17 06:33:41;;;;;;;13.30;1.47;;;7.10;25.30;;;;;;4390458;32;20111;-40
2021/03/17 06:36:16;;;;;;;17.80;1.13;;;7.20;25.00;;;;;;4377558;32;20146;-41
2021/03/17 06:38:43;;;;;;;15.33;1.90;;;7.30;25.60;;;;;;4371594;32;20077;-40
2021/03/17 06:41:09;;;;;;;18.90;1.20;;;7.40;25.40;;;;;;4359402;32;20090;-39
2021/03/17 06:43:43;;;;;;;11.23;1.80;;;7.50;25.70;;;;;;4359518;32;20164;-39
2021/03/17 06:46:15;;;;;;;28.60;1.80;;;7.60;24.80;;;;;;4358865;32;20097;-38
2021/03/17 06:48:41;;;;;;;29.90;3.20;;;7.80;25.00;;;;;;4359331;32;20074;-39
2021/03/17 06:51:18;;;;;;;10.07;1.83;;;8.00;25.10;;;;;;4358774;32;20564;-40
2021/03/17 06:53:53;;;;;;;14.87;1.27;;;8.40;25.10;;;;;;4371250;32;20585;-39
2021/03/17 06:56:43;;;;;;;11.82;1.48;;;8.80;24.80;;;;;;4359566;32;20185;-39
2021/03/17 06:59:11;;;;;;;21.10;3.37;;;9.10;24.40;;;;;;4371224;32;20086;-38
2021/03/17 07:01:46;;;;;;;19.77;2.00;;;9.50;24.10;;;;;;4359357;32;20074;-43
2021/03/17 07:04:25;;;;;;;14.60;2.28;;;9.80;24.00;;;;;;4371440;32;20185;-40
2021/03/17 07:07:02;;;;;;;14.07;1.60;;;10.30;24.20;;;;;;4358945;32;20554;-40
2021/03/17 07:09:30;;;;;;;14.17;2.23;;;10.70;23.80;;;;;;4371561;32;20734;-40
2021/03/17 07:12:07;;;;;;;22.87;1.42;;;11.00;21.90;;;;;;4359206;32;20495;-40
2021/03/17 07:14:44;;;;;;;35.35;5.70;;;11.10;21.50;;;;;;4371520;32;20070;-40
2021/03/17 07:17:27;;;;;;;17.77;1.42;;;11.50;22.20;;;;;;4401200;32;20545;-40
2021/03/17 07:19:54;;;;;;;6.82;0.45;;;11.80;21.10;;;;;;4403577;32;20065;-40
2021/03/17 07:22:20;;;;;;;5.95;1.33;;;12.10;21.50;;;;;;4403638;32;20514;-41
2021/03/17 07:24:52;;;;;;;26.87;2.03;;;12.40;21.00;;;;;;4389604;32;20124;-41
2021/03/17 07:27:23;;;;;;;24.87;2.28;;;12.60;21.10;;;;;;4404138;32;20061;-43
2021/03/17 07:30:09;;;;;;;15.80;1.37;;;12.70;21.10;;;;;;4389893;32;20052;-42
2021/03/17 07:32:59;;;;;;;40.70;4.60;;;12.90;21.20;;;;;;4403749;32;20053;-40
2021/03/17 07:35:33;;;;;;;8.15;1.15;;;12.90;21.00;;;;;;4370460;32;20612;-41
2021/03/17 07:38:10;;;;;;;19.47;1.00;;;13.00;20.90;;;;;;4358203;32;20692;-41
2021/03/17 07:40:45;;;;;;;8.18;0.90;;;13.10;20.80;;;;;;4370941;32;20130;-42
2021/03/17 07:43:12;;;;;;;17.08;2.55;;;13.30;20.50;;;;;;4371097;32;20058;-41
2021/03/17 07:45:39;;;;;;;23.92;2.10;;;13.30;20.30;;;;;;4371039;32;20067;-40
2021/03/17 07:48:08;;;;;;;4.25;1.23;;;13.40;20.20;;;;;;4371090;32;20149;-39
2021/03/17 07:50:35;;;;;;;21.30;2.10;;;13.30;19.90;;;;;;4370410;32;20098;-41
2021/03/17 07:53:06;;;;;;;11.57;1.25;;;13.20;19.30;;;;;;4370615;32;20070;-42
2021/03/17 07:55:39;;;;;;;7.53;1.52;;;13.00;19.90;;;;;;4370828;32;20144;-42
2021/03/17 07:58:05;;;;;;;5.57;1.42;;;12.80;19.40;;;;;;4358595;32;20522;-41
2021/03/17 08:00:32;;;;;;;10.43;1.65;;;12.60;20.20;;;;;;4357793;32;20093;-41
2021/03/17 08:02:58;;;;;;;18.42;1.98;;;12.50;20.00;;;;;;4358187;32;20066;-41
2021/03/17 08:05:25;;;;;;;36.17;3.95;;;12.50;20.20;;;;;;4373262;32;20054;-41
2021/03/17 08:07:51;;;;;;;4.78;1.27;;;12.40;19.90;;;;;;4389147;32;20473;-43
2021/03/17 08:10:18;;;;;;;98.62;6.10;;;12.40;19.90;;;;;;4375674;32;20089;-40
2021/03/17 08:12:44;;;;;;;6.05;1.02;;;12.40;19.80;;;;;;4373988;32;20589;-40
2021/03/17 08:15:14;;;;;;;9.98;2.15;;;12.30;19.90;;;;;;4387904;32;20166;-40
2021/03/17 08:17:41;;;;;;;11.25;0.80;;;12.40;20.30;;;;;;4388189;32;20093;-41
2021/03/17 08:20:28;;;;;;;7.43;0.60;;;12.30;19.80;;;;;;4388035;32;20078;-40
2021/03/17 08:22:56;;;;;;;17.15;1.27;;;12.30;19.80;;;;;;4374620;32;20058;-41
2021/03/17 08:25:46;;;;;;;6.12;0.95;;;12.40;19.80;;;;;;4387444;32;20587;-41
2021/03/17 08:28:29;;;;;;;13.80;0.95;;;12.50;19.80;;;;;;4314182;33;20094;-41
2021/03/17 08:30:57;;;;;;;4.37;1.02;;;12.60;20.00;;;;;;4326080;33;20091;-40
2021/03/17 08:33:31;;;;;;;15.30;1.30;;;12.60;19.80;;;;;;4311307;33;20097;-41
2021/03/17 08:36:14;;;;;;;7.75;0.90;;;12.60;19.70;;;;;;4301464;33;20533;-40
2021/03/17 08:38:53;;;;;;;9.88;0.93;;;12.60;20.10;;;;;;4282313;33;20148;-42
2021/03/17 08:41:43;;;;;;;16.62;1.58;;;12.60;20.10;;;;;;4282047;33;20071;-43
2021/03/17 08:44:20;;;;;;;12.48;1.20;;;12.50;20.50;;;;;;4282338;33;20125;-42
2021/03/17 08:46:47;;;;;;;5.37;0.80;;;12.50;20.10;;;;;;4282373;33;20142;-40
2021/03/17 08:49:27;;;;;;;5.68;0.93;;;12.40;19.60;;;;;;4270073;33;20088;-40
2021/03/17 08:51:54;;;;;;;2.22;0.45;;;12.30;19.30;;;;;;4269593;33;20075;-42
2021/03/17 08:54:41;;;;;;;11.00;0.95;;;12.30;19.20;;;;;;4282100;33;20162;-41
2021/03/17 08:57:12;;;;;;;6.55;1.12;;;12.30;19.80;;;;;;4281985;33;20073;-40
2021/03/17 09:00:03;;;;;;;5.93;1.15;;;12.20;19.60;;;;;;4289271;33;20138;-38
2021/03/17 09:02:30;;;;;;;2.37;0.80;;;12.00;19.50;;;;;;4274895;33;20095;-39
2021/03/17 09:05:03;;;;;;;2.20;0.50;;;12.00;19.50;;;;;;4296552;33;20074;-38
2021/03/17 09:07:32;;;;;;;2.97;0.62;;;11.90;19.70;;;;;;4285105;33;20072;-39
2021/03/17 09:10:12;;;;;;;4.00;0.88;;;12.00;20.20;;;;;;4283104;33;20196;-41
2021/03/17 09:12:45;;;;;;;3.17;0.82;;;12.00;19.20;;;;;;4314505;33;20071;-40
2021/03/17 09:15:17;;;;;;;7.60;0.77;;;12.00;19.70;;;;;;4328846;33;20144;-39
2021/03/17 09:17:57;;;;;;;3.12;0.52;;;11.90;19.20;;;;;;4301781;33;20079;-38
2021/03/17 09:20:24;;;;;;;0.47;0.30;;;11.70;19.10;;;;;;4298791;33;20088;-39
2021/03/17 09:23:14;;;;;;;5.00;0.82;;;11.60;19.50;;;;;;4286813;33;20080;-39
2021/03/17 09:26:01;;;;;;;2.22;0.50;;;11.50;19.10;;;;;;4288188;33;20068;-39
2021/03/17 09:28:35;;;;;;;3.85;0.62;;;11.50;19.80;;;;;;4263655;33;20068;-40
2021/03/17 09:31:09;;;;;;;0.82;0.37;;;11.40;20.00;;;;;;4232242;33;20167;-40
2021/03/17 09:33:38;;;;;;;2.23;0.47;;;11.30;19.60;;;;;;4256007;33;20134;-39
2021/03/17 09:36:13;;;;;;;4.45;0.52;;;11.30;19.50;;;;;;4244126;33;20076;-38
2021/03/17 09:38:44;;;;;;;3.15;0.82;;;11.30;19.80;;;;;;4248279;33;20076;-41
2021/03/17 09:41:15;;;;;;;5.15;0.60;;;11.30;19.60;;;;;;4231824;33;20113;-39
2021/03/17 09:43:50;;;;;;;4.35;0.52;;;11.30;19.70;;;;;;4256023;33;20069;-41
2021/03/17 09:46:20;;;;;;;4.57;0.57;;;11.30;19.90;;;;;;4244272;33;20589;-40
2021/03/17 09:48:48;;;;;;;2.22;0.65;;;11.30;20.60;;;;;;4256148;33;20076;-42
2021/03/17 09:51:30;;;;;;;5.68;1.23;;;11.40;20.00;;;;;;4255889;33;20175;-41
2021/03/17 09:53:58;;;;;;;5.75;1.77;;;11.40;20.30;;;;;;4255116;33;20577;-41
2021/03/17 09:56:53;;;;;;;4.65;1.25;;;11.50;20.20;;;;;;4271293;33;20082;-41
2021/03/17 09:59:25;;;;;;;1.75;0.50;;;11.50;20.20;;;;;;4342983;33;20467;-40
2021/03/17 10:01:54;;;;;;;0.75;0.40;;;11.60;19.90;;;;;;4330021;33;20158;-39
2021/03/17 10:04:26;;;;;;;2.45;0.90;;;11.40;19.70;;;;;;4300653;33;20056;-41
2021/03/17 10:06:53;;;;;;;3.97;0.88;;;11.50;19.70;;;;;;4288653;33;20070;-41
2021/03/17 10:09:20;;;;;;;5.25;1.08;;;11.30;20.20;;;;;;4313172;33;20093;-41
2021/03/17 10:11:49;;;;;;;10.32;1.85;;;11.30;20.70;;;;;;4289029;33;20154;-41
2021/03/17 10:14:17;;;;;;;2.25;0.60;;;11.30;20.40;;;;;;4272274;33;20057;-38
2021/03/17 10:16:45;;;;;;;3.08;0.60;;;11.30;20.30;;;;;;4271951;33;20084;-41
2021/03/17 10:19:15;;;;;;;2.75;0.47;;;11.30;19.50;;;;;;4260222;33;20112;-41
2021/03/17 10:21:42;;;;;;;1.05;0.45;;;11.20;19.70;;;;;;4272143;33;20079;-41
2021/03/17 10:24:11;;;;;;;2.60;0.80;;;11.30;20.10;;;;;;4271403;33;20115;-40
2021/03/17 10:26:38;;;;;;;3.90;0.70;;;11.30;19.60;;;;;;4272062;33;20076;-49
2021/03/17 10:29:05;;;;;;;1.33;0.20;;;11.20;20.10;;;;;;4257395;33;20079;-40
2021/03/17 10:31:33;;;;;;;6.28;0.80;;;11.20;20.60;;;;;;4257318;33;20222;-41
2021/03/17 10:34:00;;;;;;;2.15;0.80;;;11.30;20.70;;;;;;4266790;33;20076;-39
2021/03/17 10:36:27;;;;;;;4.20;0.60;;;11.30;19.90;;;;;;4296036;33;20162;-40
2021/03/17 10:38:54;;;;;;;2.67;0.68;;;11.10;20.10;;;;;;4285974;33;20138;-41
2021/03/17 10:41:43;;;;;;;2.20;0.57;;;11.20;20.90;;;;;;4286465;33;20071;-41
2021/03/17 10:44:18;;;;;;;1.52;0.52;;;11.10;20.50;;;;;;4327710;33;20147;-41
2021/03/17 10:46:57;;;;;;;1.20;0.50;;;11.10;20.30;;;;;;4312592;33;20110;-40
2021/03/17 10:49:24;;;;;;;2.83;0.75;;;11.10;20.90;;;;;;4300432;33;20102;-39
2021/03/17 11:04:07;;;;;;;4.18;0.65;;;10.90;20.00;;;;;;3807302;37;20549;-43
2021/03/17 11:06:34;;;;;;;1.55;0.40;;;11.10;20.80;;;;;;4372192;32;20104;-43
2021/03/17 11:09:06;;;;;;;2.45;0.43;;;11.20;20.00;;;;;;4371506;32;20113;-42
2021/03/17 11:11:34;;;;;;;1.12;0.50;;;11.20;20.30;;;;;;4378066;32;20066;-42
2021/03/17 11:14:01;;;;;;;7.78;1.55;;;11.20;20.50;;;;;;4369256;32;20450;-41
2021/03/17 11:16:37;;;;;;;2.67;0.57;;;11.30;20.90;;;;;;4370682;32;20066;-41
2021/03/17 11:19:13;;;;;;;4.30;0.50;;;11.40;21.20;;;;;;4370550;32;20083;-41
2021/03/17 11:21:40;;;;;;;6.18;0.60;;;11.40;20.90;;;;;;4369071;32;20082;-43
2021/03/17 11:24:18;;;;;;;3.47;0.68;;;11.50;21.20;;;;;;4370769;32;20086;-41
2021/03/17 11:26:45;;;;;;;5.00;0.60;;;11.50;21.00;;;;;;4370548;32;20074;-41
2021/03/17 11:29:30;;;;;;;4.05;0.68;;;11.50;20.90;;;;;;4368987;32;20066;-43
2021/03/17 11:32:07;;;;;;;7.03;0.85;;;11.40;21.40;;;;;;4370728;32;20054;-43
2021/03/17 11:34:33;;;;;;;5.70;0.65;;;11.40;20.40;;;;;;4370292;32;20204;-42
2021/03/17 11:37:00;;;;;;;4.30;0.65;;;11.40;20.90;;;;;;4370231;32;20055;-42
2021/03/17 11:39:26;;;;;;;2.08;0.50;;;11.40;20.90;;;;;;4370214;32;20077;-41
2021/03/17 11:41:52;;;;;;;2.28;0.50;;;11.40;20.50;;;;;;4368802;32;20062;-43
2021/03/17 11:44:21;;;;;;;4.20;0.90;;;11.50;20.70;;;;;;4369982;32;20092;-40
2021/03/17 11:46:47;;;;;;;5.32;0.73;;;11.50;20.70;;;;;;4369968;32;20202;-42
2021/03/17 11:49:15;;;;;;;1.25;0.50;;;11.60;20.40;;;;;;4368583;32;20098;-42
2021/03/17 11:51:42;;;;;;;2.30;0.65;;;11.50;20.50;;;;;;4370130;32;20082;-40
2021/03/17 11:54:09;;;;;;;2.78;0.52;;;11.40;20.40;;;;;;4364988;32;20125;-41
2021/03/17 11:56:35;;;;;;;1.52;0.75;;;11.50;21.10;;;;;;4354709;32;20537;-42
2021/03/17 11:59:02;;;;;;;4.10;0.50;;;11.50;21.40;;;;;;4353417;32;20055;-41
2021/03/17 12:01:28;;;;;;;3.15;0.70;;;11.40;20.90;;;;;;4355198;32;20177;-41
2021/03/17 12:03:55;;;;;;;2.15;0.50;;;11.30;20.60;;;;;;4349498;32;20071;-41
2021/03/17 12:06:21;;;;;;;1.17;0.60;;;11.20;20.80;;;;;;4345117;33;20058;-41
2021/03/17 12:08:48;;;;;;;1.73;0.52;;;11.20;20.50;;;;;;4344711;32;20062;-43
2021/03/17 12:11:16;;;;;;;1.40;0.50;;;11.10;20.70;;;;;;4345079;33;20534;-44
2021/03/17 12:13:42;;;;;;;1.58;0.30;;;11.10;20.90;;;;;;4345181;33;20126;-40
2021/03/17 12:16:09;;;;;;;0.57;0.30;;;11.00;20.80;;;;;;4344977;32;20077;-41
2021/03/17 12:18:35;;;;;;;1.92;0.40;;;11.00;20.60;;;;;;4344733;33;20086;-42
2021/03/17 12:21:02;;;;;;;10.70;1.33;;;11.00;20.90;;;;;;4345258;32;20079;-41
2021/03/17 12:23:29;;;;;;;2.05;0.60;;;11.00;21.50;;;;;;4343115;33;20548;-42
2021/03/17 12:25:55;;;;;;;1.62;0.65;;;10.90;21.70;;;;;;4344883;33;20183;-43
2021/03/17 12:28:21;;;;;;;2.58;0.43;;;10.90;21.40;;;;;;4344413;33;20066;-42
2021/03/17 12:30:48;;;;;;;3.92;0.50;;;10.90;21.70;;;;;;4344996;32;20082;-41
2021/03/17 12:33:14;;;;;;;4.53;0.60;;;10.90;21.50;;;;;;4343913;33;20055;-42
2021/03/17 12:35:41;;;;;;;3.30;0.62;;;10.90;21.60;;;;;;4344959;33;20106;-41
2021/03/17 12:38:07;;;;;;;0.80;0.50;;;11.00;21.60;;;;;;4344762;33;20144;-42
2021/03/17 12:40:34;;;;;;;1.58;0.60;;;11.00;21.60;;;;;;4344711;33;20075;-41
2021/03/17 12:43:00;;;;;;;0.93;0.30;;;10.90;21.60;;;;;;4344528;32;20075;-41
2021/03/17 12:45:28;;;;;;;2.75;0.60;;;10.80;22.10;;;;;;4342961;33;20094;-43
2021/03/17 12:47:54;;;;;;;2.17;0.50;;;10.80;21.20;;;;;;4349347;32;20478;-42
2021/03/17 12:50:23;;;;;;;1.00;0.40;;;10.80;21.70;;;;;;4357584;32;20054;-41
2021/03/17 12:52:49;;;;;;;1.00;0.60;;;10.80;21.60;;;;;;4359315;32;20528;-43
2021/03/17 12:55:16;;;;;;;0.98;0.40;;;10.80;21.50;;;;;;4359001;32;20145;-42
2021/03/17 12:57:42;;;;;;;2.83;0.50;;;10.80;21.50;;;;;;4359416;32;20426;-44
2021/03/17 13:00:20;;;;;;;0.60;0.50;;;10.80;21.70;;;;;;4359004;32;20094;-43
2021/03/17 13:02:47;;;;;;;1.12;0.60;;;10.70;21.90;;;;;;4357973;32;20084;-41
2021/03/17 13:05:14;;;;;;;1.60;0.60;;;10.60;22.10;;;;;;4359952;32;20135;-40
2021/03/17 13:07:41;;;;;;;1.48;0.68;;;10.60;22.30;;;;;;4359254;32;20140;-43
2021/03/17 13:10:10;;;;;;;2.92;0.80;;;10.50;22.20;;;;;;4345386;32;20079;-40
2021/03/17 13:12:37;;;;;;;0.98;0.28;;;10.40;22.10;;;;;;4357862;32;20086;-40
2021/03/17 13:15:06;;;;;;;2.05;0.57;;;10.20;22.60;;;;;;4358109;32;20061;-40
2021/03/17 13:17:32;;;;;;;2.83;2.00;;;10.10;22.70;;;;;;4358851;32;20098;-41